WCG55M EPKT-EPGD
Flight info
| Callsign | WCG55M |
|---|---|
| Flight time | 0h 48m |
| Altitude | 36000 |
| Route | NAVUR N744 OVBOR N133 GRUDA/N0441F350 Z95 OSLOG |
| Aircraft | A321/M-SDE3FGHIRWY/LB1 |
Departure
| Time | 2026-05-05 20:22 |
|---|---|
| Airport | Katowice Wojciech Korfanty International Airport (EPKT) |
Arrival
| Time | 2026-05-05 21:10 |
|---|---|
| Airport | Gdańsk Lech Wałęsa Airport (EPGD) |
| Time | Latitude | Longitude | Altitude | Speed | Heading |
|---|---|---|---|---|---|
| 2026-05-05 19:54 | 50.47142 | 19.09716 | 999 ft | 0 kts | 180° |
| 2026-05-05 20:14 | 50.47146 | 19.09716 | 1002 ft | 3 kts | 180° |
| 2026-05-05 20:14 | 50.47173 | 19.09716 | 999 ft | 4 kts | 180° |
| 2026-05-05 20:15 | 50.47200 | 19.09716 | 1000 ft | 3 kts | 180° |
| 2026-05-05 20:15 | 50.47221 | 19.09713 | 999 ft | 4 kts | 147° |
| 2026-05-05 20:15 | 50.47232 | 19.09686 | 1000 ft | 4 kts | 89° |
| 2026-05-05 20:15 | 50.47230 | 19.09645 | 999 ft | 3 kts | 88° |
| 2026-05-05 20:16 | 50.47230 | 19.09637 | 1002 ft | 0 kts | 90° |
| 2026-05-05 20:17 | 50.47230 | 19.09638 | 1002 ft | 0 kts | 90° |
| 2026-05-05 20:17 | 50.47230 | 19.09639 | 1002 ft | 0 kts | 90° |
| 2026-05-05 20:18 | 50.47230 | 19.09660 | 999 ft | 3 kts | 90° |
| 2026-05-05 20:18 | 50.47230 | 19.09713 | 999 ft | 6 kts | 90° |
| 2026-05-05 20:18 | 50.47229 | 19.09797 | 1004 ft | 9 kts | 90° |
| 2026-05-05 20:18 | 50.47228 | 19.09909 | 1002 ft | 11 kts | 90° |
| 2026-05-05 20:19 | 50.47247 | 19.10042 | 1001 ft | 14 kts | 58° |
| 2026-05-05 20:19 | 50.47309 | 19.10175 | 1001 ft | 16 kts | 53° |
| 2026-05-05 20:19 | 50.47376 | 19.10306 | 1002 ft | 10 kts | 51° |
| 2026-05-05 20:19 | 50.47398 | 19.10348 | 999 ft | 5 kts | 50° |
| 2026-05-05 20:20 | 50.47428 | 19.10405 | 999 ft | 8 kts | 46° |
| 2026-05-05 20:20 | 50.47486 | 19.10443 | 1004 ft | 11 kts | 9° |
| 2026-05-05 20:20 | 50.47565 | 19.10422 | 998 ft | 13 kts | 325° |
| 2026-05-05 20:20 | 50.47594 | 19.10278 | 1003 ft | 15 kts | 270° |
| 2026-05-05 20:21 | 50.47595 | 19.10254 | 1003 ft | 1 kts | 271° |
| 2026-05-05 20:21 | 50.47593 | 19.10080 | 1003 ft | 53 kts | 270° |
| 2026-05-05 20:21 | 50.47595 | 19.09038 | 1002 ft | 134 kts | 270° |
| 2026-05-05 20:21 | 50.47619 | 19.07296 | 1341 ft | 169 kts | 270° |
| 2026-05-05 20:22 | 50.47640 | 19.05419 | 2187 ft | 173 kts | 265° |
| 2026-05-05 20:22 | 50.47651 | 19.03535 | 3001 ft | 178 kts | 262° |
| 2026-05-05 20:22 | 50.47639 | 19.01472 | 3379 ft | 199 kts | 262° |
| 2026-05-05 20:22 | 50.47619 | 18.99170 | 3646 ft | 223 kts | 263° |
| 2026-05-05 20:23 | 50.47641 | 18.96684 | 4315 ft | 236 kts | 272° |
| 2026-05-05 20:23 | 50.48359 | 18.94303 | 5226 ft | 256 kts | 309° |
| 2026-05-05 20:23 | 50.49950 | 18.92909 | 6149 ft | 272 kts | 343° |
| 2026-05-05 20:23 | 50.51865 | 18.92668 | 7076 ft | 278 kts | 0° |
| 2026-05-05 20:24 | 50.53794 | 18.92911 | 8032 ft | 279 kts | 5° |
| 2026-05-05 20:24 | 50.55708 | 18.93251 | 8995 ft | 280 kts | 6° |
| 2026-05-05 20:24 | 50.57655 | 18.93541 | 9919 ft | 282 kts | 4° |
| 2026-05-05 20:24 | 50.59627 | 18.93738 | 10754 ft | 285 kts | 2° |
| 2026-05-05 20:25 | 50.61624 | 18.93875 | 11550 ft | 289 kts | 5° |
| 2026-05-05 20:25 | 50.63568 | 18.94756 | 12314 ft | 294 kts | 31° |
| 2026-05-05 20:25 | 50.65070 | 18.96842 | 13023 ft | 297 kts | 57° |
| 2026-05-05 20:25 | 50.65877 | 18.99917 | 13312 ft | 313 kts | 86° |
| 2026-05-05 20:26 | 50.65910 | 19.03439 | 13535 ft | 333 kts | 95° |
| 2026-05-05 20:26 | 50.65844 | 19.07214 | 13694 ft | 356 kts | 95° |
| 2026-05-05 20:26 | 50.65773 | 19.11189 | 13829 ft | 378 kts | 94° |
| 2026-05-05 20:26 | 50.65726 | 19.15416 | 14258 ft | 388 kts | 93° |
| 2026-05-05 20:27 | 50.65703 | 19.19707 | 14854 ft | 393 kts | 92° |
| 2026-05-05 20:27 | 50.65691 | 19.24041 | 15481 ft | 398 kts | 92° |
| 2026-05-05 20:27 | 50.65684 | 19.28425 | 16112 ft | 402 kts | 92° |
| 2026-05-05 20:27 | 50.65717 | 19.32862 | 16709 ft | 407 kts | 87° |
| 2026-05-05 20:28 | 50.66178 | 19.37234 | 17284 ft | 412 kts | 76° |
| 2026-05-05 20:28 | 50.67192 | 19.41504 | 17873 ft | 418 kts | 64° |
| 2026-05-05 20:28 | 50.68714 | 19.45428 | 18403 ft | 422 kts | 55° |
| 2026-05-05 20:28 | 50.70404 | 19.49233 | 18907 ft | 425 kts | 55° |
| 2026-05-05 20:29 | 50.72084 | 19.53030 | 19411 ft | 428 kts | 55° |
| 2026-05-05 20:29 | 50.73815 | 19.56954 | 19939 ft | 431 kts | 56° |
| 2026-05-05 20:29 | 50.75516 | 19.60825 | 20469 ft | 434 kts | 56° |
| 2026-05-05 20:29 | 50.77247 | 19.64768 | 20970 ft | 437 kts | 55° |
| 2026-05-05 20:30 | 50.78996 | 19.68742 | 21502 ft | 440 kts | 55° |
| 2026-05-05 20:30 | 50.80750 | 19.72735 | 22017 ft | 443 kts | 55° |
| 2026-05-05 20:30 | 50.82511 | 19.76758 | 22522 ft | 446 kts | 56° |
| 2026-05-05 20:30 | 50.84319 | 19.80782 | 23012 ft | 449 kts | 51° |
| 2026-05-05 20:31 | 50.86460 | 19.84323 | 23467 ft | 452 kts | 40° |
| 2026-05-05 20:31 | 50.89014 | 19.87243 | 23882 ft | 454 kts | 30° |
| 2026-05-05 20:31 | 50.91880 | 19.89398 | 24301 ft | 456 kts | 19° |
| 2026-05-05 20:31 | 50.94944 | 19.90702 | 24723 ft | 457 kts | 8° |
| 2026-05-05 20:32 | 50.98112 | 19.91118 | 25133 ft | 458 kts | 359° |
| 2026-05-05 20:32 | 51.01278 | 19.91413 | 25523 ft | 461 kts | 9° |
| 2026-05-05 20:32 | 51.04348 | 19.92951 | 25926 ft | 466 kts | 24° |
| 2026-05-05 20:32 | 51.07210 | 19.95453 | 26313 ft | 468 kts | 30° |
| 2026-05-05 20:33 | 51.10073 | 19.97827 | 26688 ft | 469 kts | 20° |
| 2026-05-05 20:33 | 51.13232 | 19.99045 | 27014 ft | 468 kts | 2° |
| 2026-05-05 20:33 | 51.16477 | 19.98714 | 27343 ft | 467 kts | 347° |
| 2026-05-05 20:33 | 51.19603 | 19.97245 | 27662 ft | 467 kts | 338° |
| 2026-05-05 20:34 | 51.22661 | 19.95447 | 27791 ft | 468 kts | 339° |
| 2026-05-05 20:34 | 51.25722 | 19.93797 | 27803 ft | 468 kts | 340° |
| 2026-05-05 20:34 | 51.28829 | 19.92224 | 27802 ft | 468 kts | 341° |
| 2026-05-05 20:34 | 51.31952 | 19.90688 | 27804 ft | 468 kts | 341° |
| 2026-05-05 20:35 | 51.35066 | 19.89154 | 27803 ft | 468 kts | 341° |
| 2026-05-05 20:35 | 51.38171 | 19.87597 | 27799 ft | 468 kts | 340° |
| 2026-05-05 20:35 | 51.41283 | 19.86002 | 27796 ft | 468 kts | 340° |
| 2026-05-05 20:35 | 51.44385 | 19.84390 | 27796 ft | 468 kts | 340° |
| 2026-05-05 20:36 | 51.47484 | 19.82763 | 27799 ft | 468 kts | 340° |
| 2026-05-05 20:36 | 51.50573 | 19.81129 | 27802 ft | 468 kts | 340° |
| 2026-05-05 20:36 | 51.53673 | 19.79487 | 27802 ft | 468 kts | 340° |
| 2026-05-05 20:36 | 51.56769 | 19.77852 | 27802 ft | 468 kts | 340° |
| 2026-05-05 20:37 | 51.59841 | 19.76237 | 27805 ft | 468 kts | 340° |
| 2026-05-05 20:37 | 51.61902 | 19.75159 | 27806 ft | 469 kts | 340° |
| 2026-05-05 20:37 | 51.66062 | 19.72984 | 27807 ft | 469 kts | 340° |
| 2026-05-05 20:37 | 51.69160 | 19.71357 | 27805 ft | 469 kts | 340° |
| 2026-05-05 20:38 | 51.72246 | 19.69727 | 27807 ft | 469 kts | 340° |
| 2026-05-05 20:38 | 51.75346 | 19.68084 | 27806 ft | 469 kts | 340° |
| 2026-05-05 20:38 | 51.78447 | 19.66439 | 27808 ft | 469 kts | 340° |
| 2026-05-05 20:38 | 51.81577 | 19.64789 | 27805 ft | 470 kts | 340° |
| 2026-05-05 20:39 | 51.84668 | 19.63224 | 27807 ft | 470 kts | 341° |
| 2026-05-05 20:39 | 51.87811 | 19.61696 | 27808 ft | 470 kts | 341° |
| 2026-05-05 20:39 | 51.90959 | 19.60198 | 27807 ft | 470 kts | 341° |
| 2026-05-05 20:39 | 51.94100 | 19.58706 | 27808 ft | 470 kts | 341° |
| 2026-05-05 20:40 | 51.97199 | 19.57221 | 27809 ft | 470 kts | 341° |
| 2026-05-05 20:40 | 52.00327 | 19.55702 | 27808 ft | 470 kts | 341° |
| 2026-05-05 20:40 | 52.03468 | 19.54155 | 27806 ft | 470 kts | 340° |
| 2026-05-05 20:40 | 52.06588 | 19.52601 | 27804 ft | 469 kts | 340° |
| 2026-05-05 20:41 | 52.09720 | 19.51037 | 27810 ft | 470 kts | 340° |
| 2026-05-05 20:41 | 52.12855 | 19.49471 | 27809 ft | 469 kts | 340° |
| 2026-05-05 20:41 | 52.15943 | 19.47936 | 27808 ft | 469 kts | 340° |
| 2026-05-05 20:41 | 52.19079 | 19.46386 | 27811 ft | 469 kts | 340° |
| 2026-05-05 20:42 | 52.22215 | 19.44834 | 27806 ft | 469 kts | 340° |
| 2026-05-05 20:42 | 52.25334 | 19.43283 | 27812 ft | 469 kts | 340° |
| 2026-05-05 20:42 | 52.28461 | 19.41723 | 27814 ft | 469 kts | 340° |
| 2026-05-05 20:42 | 52.31546 | 19.40183 | 27821 ft | 469 kts | 340° |
| 2026-05-05 20:43 | 52.34669 | 19.38620 | 27826 ft | 468 kts | 340° |
| 2026-05-05 20:43 | 52.37792 | 19.37051 | 27826 ft | 468 kts | 340° |
| 2026-05-05 20:43 | 52.40915 | 19.35479 | 27818 ft | 468 kts | 339° |
| 2026-05-05 20:43 | 52.44003 | 19.33923 | 27819 ft | 468 kts | 339° |
| 2026-05-05 20:44 | 52.47120 | 19.32352 | 27827 ft | 468 kts | 339° |
| 2026-05-05 20:44 | 52.50240 | 19.30781 | 27822 ft | 468 kts | 339° |
| 2026-05-05 20:44 | 52.53355 | 19.29214 | 27831 ft | 468 kts | 339° |
| 2026-05-05 20:44 | 52.56440 | 19.27661 | 27830 ft | 468 kts | 339° |
| 2026-05-05 20:45 | 52.62675 | 19.24508 | 27842 ft | 468 kts | 339° |
| 2026-05-05 20:45 | 52.65790 | 19.22925 | 27839 ft | 468 kts | 339° |
| 2026-05-05 20:45 | 52.68905 | 19.21339 | 27839 ft | 468 kts | 339° |
| 2026-05-05 20:46 | 52.72023 | 19.19746 | 27838 ft | 468 kts | 339° |
| 2026-05-05 20:46 | 52.75108 | 19.18170 | 27842 ft | 468 kts | 339° |
| 2026-05-05 20:46 | 52.78236 | 19.16576 | 27846 ft | 468 kts | 339° |
| 2026-05-05 20:46 | 52.81359 | 19.14989 | 27847 ft | 468 kts | 339° |
| 2026-05-05 20:47 | 52.84440 | 19.13422 | 27848 ft | 468 kts | 339° |
| 2026-05-05 20:47 | 52.87565 | 19.11825 | 27849 ft | 468 kts | 339° |
| 2026-05-05 20:47 | 52.90684 | 19.10224 | 27853 ft | 468 kts | 339° |
| 2026-05-05 20:47 | 52.93787 | 19.08622 | 27849 ft | 465 kts | 338° |
| 2026-05-05 20:48 | 52.96820 | 19.07055 | 27617 ft | 448 kts | 338° |
| 2026-05-05 20:48 | 52.99752 | 19.05550 | 27355 ft | 433 kts | 338° |
| 2026-05-05 20:48 | 53.02582 | 19.04099 | 27098 ft | 419 kts | 338° |
| 2026-05-05 20:48 | 53.04410 | 19.03158 | 26941 ft | 410 kts | 338° |
| 2026-05-05 20:49 | 53.07095 | 19.01770 | 26683 ft | 398 kts | 338° |
| 2026-05-05 20:49 | 53.10541 | 18.99981 | 26340 ft | 384 kts | 337° |
| 2026-05-05 20:49 | 53.13069 | 18.98661 | 25953 ft | 378 kts | 337° |
| 2026-05-05 20:49 | 53.15595 | 18.97335 | 25559 ft | 381 kts | 337° |
| 2026-05-05 20:50 | 53.17272 | 18.96453 | 25301 ft | 381 kts | 337° |
| 2026-05-05 20:50 | 53.19799 | 18.95124 | 24919 ft | 381 kts | 337° |
| 2026-05-05 20:50 | 53.22327 | 18.93800 | 24536 ft | 379 kts | 337° |
| 2026-05-05 20:50 | 53.24856 | 18.92481 | 24161 ft | 378 kts | 337° |
| 2026-05-05 20:51 | 53.27365 | 18.91172 | 23791 ft | 376 kts | 337° |
| 2026-05-05 20:51 | 53.29832 | 18.89887 | 23426 ft | 375 kts | 337° |
| 2026-05-05 20:51 | 53.32325 | 18.88590 | 22984 ft | 373 kts | 337° |
| 2026-05-05 20:51 | 53.34808 | 18.87295 | 22561 ft | 370 kts | 337° |
| 2026-05-05 20:52 | 53.37231 | 18.86021 | 22138 ft | 368 kts | 337° |
| 2026-05-05 20:52 | 53.39668 | 18.84733 | 21734 ft | 365 kts | 337° |
| 2026-05-05 20:52 | 53.42084 | 18.83453 | 21307 ft | 362 kts | 337° |
| 2026-05-05 20:52 | 53.44491 | 18.82176 | 20885 ft | 360 kts | 337° |
| 2026-05-05 20:53 | 53.46870 | 18.80912 | 20497 ft | 358 kts | 337° |
| 2026-05-05 20:53 | 53.49239 | 18.79656 | 20098 ft | 355 kts | 338° |
| 2026-05-05 20:53 | 53.51581 | 18.78510 | 19711 ft | 355 kts | 342° |
| 2026-05-05 20:53 | 53.54040 | 18.77910 | 19334 ft | 358 kts | 352° |
| 2026-05-05 20:54 | 53.56526 | 18.77647 | 18945 ft | 356 kts | 352° |
| 2026-05-05 20:54 | 53.58993 | 18.77377 | 18573 ft | 354 kts | 352° |
| 2026-05-05 20:54 | 53.61439 | 18.77102 | 18195 ft | 352 kts | 352° |
| 2026-05-05 20:54 | 53.63882 | 18.76819 | 17776 ft | 350 kts | 351° |
| 2026-05-05 20:55 | 53.66286 | 18.76546 | 17351 ft | 348 kts | 353° |
| 2026-05-05 20:55 | 53.68709 | 18.76959 | 16937 ft | 353 kts | 12° |
| 2026-05-05 20:55 | 53.71037 | 18.78326 | 16529 ft | 353 kts | 17° |
| 2026-05-05 20:55 | 53.73339 | 18.79762 | 16080 ft | 351 kts | 17° |
| 2026-05-05 20:56 | 53.75627 | 18.81202 | 15580 ft | 349 kts | 17° |
| 2026-05-05 20:56 | 53.77867 | 18.82609 | 15092 ft | 347 kts | 17° |
| 2026-05-05 20:56 | 53.80125 | 18.84026 | 14601 ft | 344 kts | 17° |
| 2026-05-05 20:56 | 53.82363 | 18.85433 | 14126 ft | 342 kts | 17° |
| 2026-05-05 20:57 | 53.84588 | 18.86838 | 13644 ft | 340 kts | 17° |
| 2026-05-05 20:57 | 53.86797 | 18.88235 | 13118 ft | 338 kts | 17° |
| 2026-05-05 20:57 | 53.89008 | 18.89625 | 12594 ft | 336 kts | 17° |
| 2026-05-05 20:57 | 53.91157 | 18.90974 | 12089 ft | 334 kts | 17° |
| 2026-05-05 20:58 | 53.93331 | 18.92345 | 11582 ft | 332 kts | 17° |
| 2026-05-05 20:58 | 53.95491 | 18.93711 | 11084 ft | 330 kts | 18° |
| 2026-05-05 20:58 | 53.97630 | 18.95065 | 10599 ft | 327 kts | 18° |
| 2026-05-05 20:58 | 53.99765 | 18.96419 | 10115 ft | 325 kts | 18° |
| 2026-05-05 20:59 | 54.01876 | 18.97758 | 9625 ft | 322 kts | 18° |
| 2026-05-05 20:59 | 54.03976 | 18.99090 | 9094 ft | 320 kts | 18° |
| 2026-05-05 20:59 | 54.06029 | 19.00389 | 8581 ft | 318 kts | 18° |
| 2026-05-05 20:59 | 54.08097 | 19.01701 | 8076 ft | 313 kts | 18° |
| 2026-05-05 21:00 | 54.10117 | 19.02988 | 7572 ft | 306 kts | 18° |
| 2026-05-05 21:00 | 54.12093 | 19.04251 | 7077 ft | 298 kts | 19° |
| 2026-05-05 21:00 | 54.14007 | 19.05477 | 6586 ft | 289 kts | 19° |
| 2026-05-05 21:00 | 54.15850 | 19.06658 | 6097 ft | 282 kts | 19° |
| 2026-05-05 21:01 | 54.17661 | 19.07820 | 5585 ft | 275 kts | 19° |
| 2026-05-05 21:01 | 54.19476 | 19.08652 | 5113 ft | 264 kts | 360° |
| 2026-05-05 21:01 | 54.21189 | 19.08107 | 4998 ft | 239 kts | 333° |
| 2026-05-05 21:01 | 54.22469 | 19.06562 | 5000 ft | 215 kts | 311° |
| 2026-05-05 21:02 | 54.23264 | 19.04455 | 5019 ft | 211 kts | 292° |
| 2026-05-05 21:02 | 54.23836 | 19.02176 | 5013 ft | 211 kts | 293° |
| 2026-05-05 21:02 | 54.24422 | 18.99874 | 5010 ft | 211 kts | 293° |
| 2026-05-05 21:02 | 54.25006 | 18.97572 | 5008 ft | 211 kts | 293° |
| 2026-05-05 21:03 | 54.25591 | 18.95259 | 5005 ft | 211 kts | 293° |
| 2026-05-05 21:03 | 54.26176 | 18.92945 | 5011 ft | 211 kts | 293° |
| 2026-05-05 21:03 | 54.26724 | 18.90777 | 5012 ft | 189 kts | 293° |
| 2026-05-05 21:03 | 54.27230 | 18.88771 | 5006 ft | 181 kts | 293° |
| 2026-05-05 21:04 | 54.27728 | 18.86796 | 5006 ft | 180 kts | 294° |
| 2026-05-05 21:04 | 54.28225 | 18.84824 | 4931 ft | 180 kts | 293° |
| 2026-05-05 21:04 | 54.28722 | 18.82847 | 4734 ft | 180 kts | 294° |
| 2026-05-05 21:04 | 54.29211 | 18.80901 | 4510 ft | 180 kts | 294° |
| 2026-05-05 21:05 | 54.29708 | 18.78924 | 4281 ft | 181 kts | 294° |
| 2026-05-05 21:05 | 54.30205 | 18.76944 | 4034 ft | 181 kts | 295° |
| 2026-05-05 21:05 | 54.30703 | 18.74956 | 3804 ft | 182 kts | 295° |
| 2026-05-05 21:05 | 54.31206 | 18.72949 | 3544 ft | 183 kts | 295° |
| 2026-05-05 21:06 | 54.31708 | 18.70943 | 3297 ft | 183 kts | 295° |
| 2026-05-05 21:06 | 54.32203 | 18.68964 | 3049 ft | 183 kts | 295° |
| 2026-05-05 21:06 | 54.32705 | 18.66954 | 2807 ft | 182 kts | 295° |
| 2026-05-05 21:06 | 54.33187 | 18.65017 | 2563 ft | 170 kts | 295° |
| 2026-05-05 21:07 | 54.33638 | 18.63207 | 2336 ft | 160 kts | 296° |
| 2026-05-05 21:07 | 54.34062 | 18.61506 | 2121 ft | 151 kts | 296° |
| 2026-05-05 21:07 | 54.34464 | 18.59892 | 1921 ft | 147 kts | 297° |
| 2026-05-05 21:07 | 54.34870 | 18.58262 | 1726 ft | 145 kts | 297° |
| 2026-05-05 21:08 | 54.35252 | 18.56724 | 1517 ft | 140 kts | 297° |
| 2026-05-05 21:08 | 54.35631 | 18.55198 | 1322 ft | 137 kts | 297° |
| 2026-05-05 21:08 | 54.36004 | 18.53698 | 1120 ft | 136 kts | 296° |
| 2026-05-05 21:08 | 54.36373 | 18.52212 | 933 ft | 135 kts | 296° |
| 2026-05-05 21:09 | 54.36745 | 18.50739 | 738 ft | 134 kts | 296° |
| 2026-05-05 21:09 | 54.37098 | 18.49274 | 546 ft | 133 kts | 295° |
| 2026-05-05 21:09 | 54.37443 | 18.47896 | 471 ft | 115 kts | 294° |
| 2026-05-05 21:09 | 54.37688 | 18.46907 | 457 ft | 65 kts | 293° |
| 2026-05-05 21:10 | 54.37812 | 18.46400 | 459 ft | 36 kts | 293° |
| 2026-05-05 21:10 | 54.37910 | 18.46037 | 455 ft | 27 kts | 301° |
| 2026-05-05 21:10 | 54.38012 | 18.45820 | 455 ft | 15 kts | 318° |
| 2026-05-05 21:10 | 54.38079 | 18.45723 | 455 ft | 13 kts | 323° |
| 2026-05-05 21:11 | 54.38139 | 18.45772 | 455 ft | 13 kts | 96° |
| 2026-05-05 21:11 | 54.38109 | 18.45918 | 458 ft | 13 kts | 112° |
| 2026-05-05 21:11 | 54.38072 | 18.46070 | 458 ft | 15 kts | 112° |
| 2026-05-05 21:11 | 54.38028 | 18.46251 | 460 ft | 18 kts | 113° |
| 2026-05-05 21:12 | 54.37978 | 18.46456 | 458 ft | 19 kts | 112° |
| 2026-05-05 21:12 | 54.37925 | 18.46662 | 460 ft | 18 kts | 113° |
| 2026-05-05 21:12 | 54.37873 | 18.46873 | 460 ft | 20 kts | 113° |
| 2026-05-05 21:12 | 54.37826 | 18.47060 | 460 ft | 11 kts | 114° |
| 2026-05-05 21:13 | 54.37813 | 18.47112 | 460 ft | 0 kts | 113° |
| 2026-05-05 21:13 | 54.37809 | 18.47128 | 460 ft | 3 kts | 113° |
| 2026-05-05 21:13 | 54.37804 | 18.47181 | 460 ft | 6 kts | 78° |
| 2026-05-05 21:13 | 54.37843 | 18.47221 | 460 ft | 7 kts | 19° |
| 2026-05-05 21:14 | 54.37871 | 18.47240 | 460 ft | 2 kts | 23° |
| 2026-05-05 21:14 | 54.37872 | 18.47241 | 460 ft | 0 kts | 23° |